»·PEaware :: SWA5181 KPHX-KLAS

SWA5181 :: KPHX-KLAS

FLIGHT INFORMATION

Flight Status: Arrived
Operator:
Southwest Airlines
More flights by this operator :: More flights under this callsign
Pilot: Camron S. (27302)
Aircraft: BOEING 737-800
(B738)
More flights by this aircraft type
Origin: KPHX Phoenix Sky Harbor Intl
United States
Destination: KLAS Harry Reid Intl
United States
More flights between these airports :: More routes between these airports
Route: ZEPER2 RRSTA ELLDA RKSTR1
File this flight plan on PilotEdge
Remarks: RMK / SIMBRIEF
Altitude:
(Current/Filed)
28,000ft
Speed:
(Current/Filed)
444kts
Departed: 23-Sep-21 09:16 PM
Arrived: 23-Sep-21 09:57 PM
Distance/Time
Traveled:
222nm/0:41
Distance/Time
To Go:
Arrived

Flight Plot

Page will automatically refresh every two minutes.

Flight plan parsing failed; only flown route is shown


Map Options




Map Legend


Flown Route
Filed Route
Departure Airport
Arrival Airport
Navaid (VOR, NDB)
Fix

Horizontal Profiles

Position Reports

Time Latitude Longitude Heading Altitude Ground
Speed
23-Sep-21 20:58 33.434063 -111.998732 292 1130ft 0kts
23-Sep-21 20:59 33.434063 -111.998732 292 1130ft 0kts
23-Sep-21 21:00 33.434063 -111.998732 292 1130ft 0kts
23-Sep-21 21:01 33.434063 -111.998732 292 1130ft 0kts
23-Sep-21 21:02 33.434063 -111.998732 292 1130ft 0kts
23-Sep-21 21:03 33.434063 -111.998732 292 1130ft 0kts
23-Sep-21 21:04 33.434063 -111.998732 292 1130ft 0kts
23-Sep-21 21:05 33.434063 -111.998732 292 1130ft 0kts
23-Sep-21 21:06 33.434063 -111.998732 292 1130ft 0kts
23-Sep-21 21:07 33.434063 -111.998732 292 1130ft 0kts
23-Sep-21 21:08 33.434014 -111.998407 252 1130ft 2kts
23-Sep-21 21:09 33.434373 -111.998129 178 1130ft 0kts
23-Sep-21 21:10 33.434373 -111.998129 178 1130ft 0kts
23-Sep-21 21:11 33.434373 -111.998129 178 1130ft 0kts
23-Sep-21 21:12 33.432373 -111.998022 158 1129ft 7kts
23-Sep-21 21:13 33.432148 -111.994622 90 1129ft 8kts
23-Sep-21 21:14 33.431214 -111.993630 223 1128ft 10kts
23-Sep-21 21:15 33.431621 -112.034359 270 2516ft 193kts
23-Sep-21 21:16 33.435234 -112.107671 272 5422ft 258kts
23-Sep-21 21:17 33.463962 -112.186363 333 8950ft 289kts
23-Sep-21 21:18 33.550278 -112.195252 358 11218ft 356kts
23-Sep-21 21:19 33.649454 -112.210198 344 14787ft 369kts
23-Sep-21 21:20 33.750883 -112.240876 342 17885ft 386kts
23-Sep-21 21:21 33.856414 -112.275657 342 20721ft 402kts
23-Sep-21 21:22 33.965714 -112.312997 341 23265ft 418kts
23-Sep-21 21:23 34.068997 -112.376823 319 25564ft 424kts
23-Sep-21 21:24 34.160759 -112.468197 317 27652ft 436kts
23-Sep-21 21:25 34.254731 -112.562755 317 28165ft 448kts
23-Sep-21 21:26 34.350651 -112.659577 317 28164ft 454kts
23-Sep-21 21:27 34.447662 -112.757830 317 28163ft 453kts
23-Sep-21 21:28 34.543729 -112.855439 316 28164ft 454kts
23-Sep-21 21:29 34.640647 -112.954727 316 28164ft 455kts
23-Sep-21 21:30 34.735662 -113.055369 310 28163ft 453kts
23-Sep-21 21:31 34.818113 -113.171214 305 28115ft 451kts
23-Sep-21 21:32 34.896179 -113.290183 305 28067ft 448kts
23-Sep-21 21:33 34.974845 -113.399663 316 28065ft 431kts
23-Sep-21 21:34 35.066862 -113.494402 323 28065ft 438kts
23-Sep-21 21:35 35.160613 -113.583792 324 28064ft 437kts
23-Sep-21 21:36 35.255526 -113.673579 323 27494ft 423kts
23-Sep-21 21:37 35.345506 -113.758998 323 25056ft 393kts
23-Sep-21 21:38 35.428807 -113.838116 322 22843ft 370kts
23-Sep-21 21:39 35.511384 -113.916584 322 20607ft 373kts
23-Sep-21 21:40 35.590700 -113.992161 321 18435ft 352kts
23-Sep-21 21:41 35.668898 -114.066914 321 16254ft 354kts
23-Sep-21 21:42 35.743676 -114.139950 314 14214ft 335kts
23-Sep-21 21:43 35.794950 -114.235041 298 12815ft 329kts
23-Sep-21 21:44 35.836854 -114.330284 297 11591ft 296kts
23-Sep-21 21:45 35.870508 -114.417419 295 10661ft 273kts
23-Sep-21 21:46 35.902685 -114.501532 295 9327ft 270kts
23-Sep-21 21:47 35.934576 -114.584998 295 8002ft 268kts
23-Sep-21 21:48 35.965241 -114.665467 295 6722ft 266kts
23-Sep-21 21:49 35.996038 -114.746524 295 5797ft 241kts
23-Sep-21 21:50 36.022676 -114.816841 295 5276ft 221kts
23-Sep-21 21:51 36.047702 -114.883042 295 4753ft 197kts
23-Sep-21 21:52 36.070596 -114.944763 290 3924ft 197kts
23-Sep-21 21:53 36.073568 -115.009716 270 3821ft 187kts
23-Sep-21 21:54 36.073640 -115.066005 268 3042ft 143kts
23-Sep-21 21:55 36.073694 -115.115199 268 2250ft 140kts
23-Sep-21 21:56 36.074253 -115.144864 295 2104ft 11kts
23-Sep-21 21:57 36.077046 -115.146538 355 2106ft 14kts
23-Sep-21 21:58 36.080448 -115.149037 338 2105ft 25kts
23-Sep-21 21:59 36.082490 -115.150223 302 2105ft 0kts
23-Sep-21 22:00 36.082490 -115.150223 302 2105ft 0kts

Navigation Log

Ident Type
Flight plan parsing failed, navigation log unavailable